createdAt,value
2022-09-07T00:01:11.808Z,99138.59
2022-09-07T00:03:40.137Z,99133.09
2022-09-07T00:06:10.356Z,99131.66
2022-09-07T00:08:39.674Z,99122.59
2022-09-07T00:11:09.755Z,99130.72
2022-09-07T00:13:39.988Z,99125.97
2022-09-07T00:16:12.128Z,99122.38
2022-09-07T00:18:45.585Z,99131.06
2022-09-07T00:21:16.828Z,99126.13
2022-09-07T00:23:45.612Z,99131.16
2022-09-07T00:26:15.736Z,99129.91
2022-09-07T00:28:44.751Z,99117.44
2022-09-07T00:31:16.662Z,99117.44
2022-09-07T00:33:45.596Z,99119.34
2022-09-07T00:36:13.726Z,99109.59
2022-09-07T00:38:42.437Z,99117.63
2022-09-07T00:41:11.696Z,99114.97
2022-09-07T00:43:41.916Z,99125.47
2022-09-07T00:46:16.891Z,99116.69
2022-09-07T00:48:50.766Z,99115.72
2022-09-07T00:51:25.458Z,99112.13
2022-09-07T00:53:58.634Z,99106.00
2022-09-07T00:56:31.138Z,99104.94
2022-09-07T00:59:00.012Z,99111.91
2022-09-07T01:01:30.209Z,99104.75
2022-09-07T01:04:01.190Z,99101.34
2022-09-07T01:06:32.166Z,99092.44
2022-09-07T01:09:04.355Z,99097.75
2022-09-07T01:11:35.396Z,99100.31
2022-09-07T01:14:05.678Z,99090.56
2022-09-07T01:16:50.666Z,99078.28
2022-09-07T01:19:46.677Z,99082.09
2022-09-07T01:22:37.596Z,99082.31
2022-09-07T01:25:12.116Z,99076.34
2022-09-07T01:28:09.446Z,99070.41
2022-09-07T01:30:39.636Z,99063.44
2022-09-07T01:33:24.687Z,99069.75
2022-09-07T01:36:01.838Z,99080.25
2022-09-07T01:38:37.927Z,99074.00
2022-09-07T01:41:11.357Z,99069.47
2022-09-07T01:43:49.696Z,99076.34
2022-09-07T01:46:22.960Z,99072.13
2022-09-07T01:48:55.294Z,99067.69
2022-09-07T01:51:26.466Z,99073.06
2022-09-07T01:53:59.268Z,99058.31
2022-09-07T01:56:33.576Z,99063.78
2022-09-07T01:59:07.486Z,99066.44
2022-09-07T02:01:40.780Z,99068.91
2022-09-07T02:04:12.677Z,99075.81
2022-09-07T02:06:47.676Z,99070.41
2022-09-07T02:09:24.567Z,99080.78
2022-09-07T02:11:52.896Z,99077.00
2022-09-07T02:14:25.827Z,99077.63
2022-09-07T02:16:58.845Z,99072.16
2022-09-07T02:19:35.507Z,99068.34
2022-09-07T02:22:09.886Z,99060.28
2022-09-07T02:24:42.796Z,99060.09
2022-09-07T02:27:15.896Z,99049.41
2022-09-07T02:29:45.737Z,99044.00
2022-09-07T02:32:14.044Z,99047.50
2022-09-07T02:34:42.363Z,99043.06
2022-09-07T02:37:12.134Z,99042.84
2022-09-07T02:39:40.654Z,99052.47
2022-09-07T02:42:10.096Z,99043.59
2022-09-07T02:44:42.199Z,99040.00
2022-09-07T02:47:22.715Z,99046.78
2022-09-07T02:50:14.026Z,99050.38
2022-09-07T02:52:53.761Z,99045.19
2022-09-07T02:55:31.915Z,99035.34
2022-09-07T02:58:12.079Z,99042.22
2022-09-07T03:00:48.597Z,99041.06
2022-09-07T03:03:24.757Z,99050.47
2022-09-07T03:06:00.457Z,99046.91
2022-09-07T03:08:35.927Z,99051.00
2022-09-07T03:11:06.204Z,99054.41
2022-09-07T03:13:34.936Z,99057.81
2022-09-07T03:16:03.778Z,99057.69
2022-09-07T03:18:33.686Z,99046.25
2022-09-07T03:21:01.967Z,99051.78
2022-09-07T03:23:30.166Z,99051.00
2022-09-07T03:25:58.618Z,99042.53
2022-09-07T03:28:27.099Z,99053.22
2022-09-07T03:30:55.439Z,99054.84
2022-09-07T03:33:23.934Z,99043.28
2022-09-07T03:36:01.036Z,99046.56
2022-09-07T03:38:30.790Z,99050.81
2022-09-07T03:41:00.856Z,99047.22
2022-09-07T03:43:29.956Z,99054.19
2022-09-07T03:45:59.660Z,99051.66
2022-09-07T03:48:28.157Z,99049.84
2022-09-07T03:50:59.809Z,99052.28
2022-09-07T03:53:28.655Z,99060.03
2022-09-07T03:55:58.794Z,99046.56
2022-09-07T03:58:27.235Z,99063.28
2022-09-07T04:00:55.576Z,99061.59
2022-09-07T04:03:24.227Z,99067.75
2022-09-07T04:05:52.446Z,99055.28
2022-09-07T04:08:26.175Z,99058.66
2022-09-07T04:10:54.446Z,99049.75
2022-09-07T04:13:22.545Z,99049.75
2022-09-07T04:15:53.779Z,99046.13
2022-09-07T04:18:22.545Z,99048.06
2022-09-07T04:20:51.095Z,99042.13
2022-09-07T04:23:19.739Z,99047.63
2022-09-07T04:25:50.606Z,99053.88
2022-09-07T04:28:20.947Z,99050.41
2022-09-07T04:30:49.442Z,99053.03
2022-09-07T04:33:18.097Z,99054.94
2022-09-07T04:35:46.577Z,99050.81
2022-09-07T04:38:16.286Z,99055.34
2022-09-07T04:40:45.126Z,99054.50
2022-09-07T04:43:14.496Z,99061.59
2022-09-07T04:45:42.967Z,99061.41
2022-09-07T04:48:11.136Z,99069.00
2022-09-07T04:50:39.546Z,99066.06
2022-09-07T04:53:07.707Z,99072.09
2022-09-07T04:55:35.926Z,99067.75
2022-09-07T04:58:04.006Z,99063.28
2022-09-07T05:00:33.644Z,99059.81
2022-09-07T05:03:02.011Z,99066.78
2022-09-07T05:05:30.060Z,99065.84
2022-09-07T05:07:58.407Z,99066.47
2022-09-07T05:10:26.656Z,99065.41
2022-09-07T05:12:54.906Z,99061.84
2022-09-07T05:15:23.257Z,99069.78
2022-09-07T05:17:52.723Z,99067.97
2022-09-07T05:20:21.546Z,99070.69
2022-09-07T05:22:49.908Z,99060.34
2022-09-07T05:25:18.127Z,99061.59
2022-09-07T05:27:46.648Z,99061.72
2022-09-07T05:33:07.978Z,99059.59
2022-09-07T05:35:36.676Z,99067.75
2022-09-07T05:38:04.776Z,99072.31
2022-09-07T05:40:39.856Z,99072.19
2022-09-07T05:43:10.425Z,99076.75
2022-09-07T05:45:38.658Z,99077.81
2022-09-07T05:48:08.898Z,99075.38
2022-09-07T05:50:37.446Z,99079.16
2022-09-07T05:53:05.694Z,99082.88
2022-09-07T05:55:33.937Z,99081.19
2022-09-07T05:58:02.257Z,99091.03
2022-09-07T06:00:31.237Z,99088.47
2022-09-07T06:02:59.764Z,99089.31
2022-09-07T06:05:29.296Z,99087.63
2022-09-07T06:07:57.586Z,99089.53
2022-09-07T06:13:14.485Z,99094.81
2022-09-07T06:15:42.916Z,99091.22
2022-09-07T06:18:11.266Z,99099.06
2022-09-07T06:20:42.241Z,99099.91
2022-09-07T06:23:10.956Z,99105.00
2022-09-07T06:25:39.277Z,99101.41
2022-09-07T06:28:08.127Z,99095.16
2022-09-07T06:30:36.436Z,99097.78
2022-09-07T06:33:04.806Z,99079.81
2022-09-07T06:35:33.138Z,99093.59
2022-09-07T06:38:02.704Z,99078.88
2022-09-07T06:40:30.906Z,99073.03
2022-09-07T06:42:59.257Z,99074.72
2022-09-07T06:45:28.149Z,99081.75
2022-09-07T06:47:56.526Z,99074.13
2022-09-07T06:50:27.818Z,99062.34
2022-09-07T06:55:46.438Z,99072.38
2022-09-07T06:58:14.587Z,99064.78
2022-09-07T07:00:42.801Z,99076.41
2022-09-07T07:03:11.050Z,99060.53
2022-09-07T07:05:39.488Z,99068.16
2022-09-07T07:08:07.806Z,99080.44
2022-09-07T07:10:40.344Z,99084.06
2022-09-07T07:13:09.867Z,99079.50
2022-09-07T07:15:38.173Z,99077.38
2022-09-07T07:18:20.487Z,99092.22
2022-09-07T07:20:49.197Z,99088.50
2022-09-07T07:23:17.484Z,99095.28
2022-09-07T07:25:45.756Z,99090.19
2022-09-07T07:31:10.421Z,99095.66
2022-09-07T07:33:41.276Z,99087.50
2022-09-07T07:36:12.657Z,99105.09
2022-09-07T07:44:21.926Z,99110.94
2022-09-07T07:46:50.860Z,99112.75
2022-09-07T07:49:19.386Z,99113.56
2022-09-07T07:54:37.171Z,99112.97
2022-09-07T07:57:05.779Z,99115.38
2022-09-07T07:59:35.387Z,99115.56
2022-09-07T08:02:05.249Z,99114.75
2022-09-07T08:04:34.426Z,99124.59
2022-09-07T08:07:09.643Z,99118.19
2022-09-07T08:09:40.438Z,99117.97
2022-09-07T08:12:08.869Z,99115.09
2022-09-07T08:14:41.524Z,99125.69
2022-09-07T08:17:12.097Z,99124.00
2022-09-07T08:19:40.946Z,99127.63
2022-09-07T08:22:10.708Z,99117.22
2022-09-07T08:24:39.057Z,99123.94
2022-09-07T08:27:07.328Z,99123.22
2022-09-07T08:29:35.858Z,99119.47
2022-09-07T08:32:07.257Z,99116.16
2022-09-07T08:34:37.639Z,99127.88
2022-09-07T08:37:05.956Z,99113.31
2022-09-07T08:39:34.136Z,99113.34
2022-09-07T08:42:17.036Z,99111.47
2022-09-07T08:44:49.919Z,99110.50
2022-09-07T08:47:28.754Z,99108.69
2022-09-07T08:50:04.899Z,99106.94
2022-09-07T08:52:43.961Z,99108.91
2022-09-07T08:55:17.526Z,99107.69
2022-09-07T08:57:48.316Z,99097.06
2022-09-07T09:00:18.649Z,99091.53
2022-09-07T09:03:29.677Z,99092.94
2022-09-07T09:05:45.175Z,99096.19
2022-09-07T09:08:27.256Z,99105.50
2022-09-07T09:11:02.986Z,99091.88
2022-09-07T09:13:45.239Z,99093.59
2022-09-07T09:16:20.469Z,99078.34
2022-09-07T09:19:06.188Z,99091.66
2022-09-07T09:21:36.269Z,99086.56
2022-09-07T09:24:15.797Z,99089.25
2022-09-07T09:29:21.535Z,99091.41
2022-09-07T09:31:50.045Z,99088.59
2022-09-07T09:34:24.034Z,99095.69
2022-09-07T09:36:57.436Z,99086.69
2022-09-07T09:39:28.390Z,99090.63
2022-09-07T09:41:58.985Z,99074.16
2022-09-07T09:44:32.365Z,99082.53
2022-09-07T09:49:53.737Z,99083.00
2022-09-07T09:52:29.529Z,99079.75
2022-09-07T09:55:17.297Z,99084.72
2022-09-07T10:01:21.016Z,99071.09
2022-09-07T10:06:20.531Z,99073.91
2022-09-07T10:08:57.891Z,99062.59
2022-09-07T10:14:32.867Z,99066.88
2022-09-07T10:17:02.485Z,99069.69
2022-09-07T10:19:36.147Z,99065.44
2022-09-07T10:22:21.056Z,99064.78
2022-09-07T10:24:49.787Z,99064.06
2022-09-07T10:27:28.266Z,99056.06
2022-09-07T10:29:56.855Z,99050.88
2022-09-07T10:32:33.336Z,99046.31
2022-09-07T10:35:14.700Z,99049.75
2022-09-07T10:37:54.808Z,99040.69
2022-09-07T10:40:31.756Z,99045.19
2022-09-07T10:43:27.314Z,99037.41
2022-09-07T10:46:12.491Z,99045.94
2022-09-07T10:48:52.105Z,99027.31
2022-09-07T10:51:32.253Z,99020.28
2022-09-07T10:54:31.300Z,99016.16
2022-09-07T10:57:09.705Z,99012.06
2022-09-07T11:05:55.217Z,99015.31
2022-09-07T11:09:15.101Z,99008.28
2022-09-07T11:14:21.826Z,99010.69
2022-09-07T11:16:54.743Z,99010.78
2022-09-07T11:19:37.061Z,99015.22
2022-09-07T11:22:17.194Z,99025.00
2022-09-07T11:27:45.785Z,99017.63
2022-09-07T11:30:20.895Z,99020.19
2022-09-07T11:32:57.536Z,99021.75
2022-09-07T11:35:35.147Z,99017.38
2022-09-07T11:38:14.487Z,99014.00
2022-09-07T11:40:52.414Z,99010.03
2022-09-07T11:43:24.686Z,99013.94
2022-09-07T11:45:56.446Z,99014.66
2022-09-07T11:48:30.715Z,99009.53
2022-09-07T11:51:02.193Z,99010.47
2022-09-07T11:53:33.936Z,99005.06
2022-09-07T11:56:11.050Z,98993.38
2022-09-07T11:58:57.615Z,99005.97
2022-09-07T12:01:35.325Z,99003.81
2022-09-07T12:04:25.018Z,98999.13
2022-09-07T12:07:23.905Z,99001.34
2022-09-07T12:10:07.596Z,99011.59
2022-09-07T12:12:45.056Z,98995.19
2022-09-07T12:15:27.040Z,99007.19
2022-09-07T12:18:07.626Z,99005.28
2022-09-07T12:20:43.445Z,98999.28
2022-09-07T12:23:31.156Z,98998.78
2022-09-07T12:26:28.946Z,99003.94
2022-09-07T12:29:23.170Z,99010.75
2022-09-07T12:31:59.836Z,99015.41
2022-09-07T12:34:52.399Z,99027.53
2022-09-07T12:37:40.327Z,99010.94
2022-09-07T12:40:45.798Z,99006.22
2022-09-07T12:43:47.863Z,99002.84
2022-09-07T12:46:46.648Z,98996.66
2022-09-07T12:49:40.906Z,98988.31
2022-09-07T12:52:16.718Z,98991.88
2022-09-07T12:55:16.323Z,98986.53
2022-09-07T12:57:55.183Z,98993.84
2022-09-07T13:00:33.275Z,98992.28
2022-09-07T13:07:01.658Z,98994.47
2022-09-07T13:09:29.047Z,98997.31
2022-09-07T13:11:57.725Z,98999.22
2022-09-07T13:14:28.669Z,99008.91
2022-09-07T13:17:32.991Z,99011.09
2022-09-07T13:20:30.089Z,98992.91
2022-09-07T13:23:26.846Z,98997.28
2022-09-07T13:25:59.006Z,99005.66
2022-09-07T13:28:37.195Z,98985.88
2022-09-07T13:31:26.041Z,98987.78
2022-09-07T13:33:55.557Z,98975.31
2022-09-07T13:36:35.823Z,98968.25
2022-09-07T13:39:12.755Z,98971.63
2022-09-07T13:41:47.036Z,98978.06
2022-09-07T13:44:26.129Z,98976.47
2022-09-07T13:47:08.046Z,98989.03
2022-09-07T13:49:49.655Z,98991.16
2022-09-07T13:52:27.526Z,98981.88
2022-09-07T13:55:07.645Z,98972.34
2022-09-07T13:57:48.093Z,98975.38
2022-09-07T14:00:17.133Z,98970.84
2022-09-07T14:02:45.541Z,98972.53
2022-09-07T14:05:20.483Z,98977.00
2022-09-07T14:07:49.403Z,98972.34
2022-09-07T14:10:21.575Z,98980.28
2022-09-07T14:12:51.320Z,98981.69
2022-09-07T14:15:22.962Z,98978.09
2022-09-07T14:18:01.069Z,98984.88
2022-09-07T14:20:29.616Z,98971.47
2022-09-07T14:22:57.883Z,98975.31
2022-09-07T14:25:27.715Z,98962.03
2022-09-07T14:27:57.803Z,98956.81
2022-09-07T14:30:29.325Z,98961.50
2022-09-07T14:33:01.076Z,98954.41
2022-09-07T14:35:34.730Z,98958.88
2022-09-07T14:38:08.269Z,98960.53
2022-09-07T14:40:37.966Z,98957.50
2022-09-07T14:43:27.904Z,98963.66
2022-09-07T14:46:12.998Z,98972.34
2022-09-07T14:48:41.756Z,98971.66
2022-09-07T14:51:29.769Z,98972.75
2022-09-07T14:54:00.675Z,98966.00
2022-09-07T14:56:33.927Z,98959.50
2022-09-07T14:59:02.756Z,98961.94
2022-09-07T15:01:38.780Z,98958.28
2022-09-07T15:04:19.527Z,98954.41
2022-09-07T15:07:03.621Z,98954.09
2022-09-07T15:09:38.333Z,98944.38
2022-09-07T15:12:19.288Z,98937.13
2022-09-07T15:14:48.566Z,98939.78
2022-09-07T15:20:33.213Z,98938.31
2022-09-07T15:23:02.037Z,98932.38
2022-09-07T15:25:30.599Z,98931.03
2022-09-07T15:28:00.373Z,98937.53
2022-09-07T15:30:28.863Z,98930.19
2022-09-07T15:32:57.886Z,98931.16
2022-09-07T15:35:26.825Z,98927.19
2022-09-07T15:38:04.396Z,98919.44
2022-09-07T15:41:03.609Z,98921.25
2022-09-07T15:43:32.843Z,98934.19
2022-09-07T15:46:02.128Z,98926.41
2022-09-07T15:48:31.945Z,98928.94
2022-09-07T15:52:04.837Z,98915.66
2022-09-07T15:54:13.454Z,98922.97
2022-09-07T15:56:42.663Z,98927.09
2022-09-07T15:59:13.038Z,98923.56
2022-09-07T16:01:58.047Z,98935.38
2022-09-07T16:04:26.581Z,98921.84
2022-09-07T16:06:54.943Z,98924.09
2022-09-07T16:09:23.058Z,98918.06
2022-09-07T16:11:51.509Z,98910.63
2022-09-07T16:14:21.025Z,98919.16
2022-09-07T16:19:41.118Z,98918.44
2022-09-07T16:22:09.950Z,98916.25
2022-09-07T16:24:38.827Z,98908.53
2022-09-07T16:27:08.347Z,98912.53
2022-09-07T16:29:38.918Z,98906.59
2022-09-07T16:34:55.377Z,98905.19
2022-09-07T16:37:23.607Z,98906.28
2022-09-07T16:39:52.692Z,98906.09
2022-09-07T16:42:20.887Z,98898.13
2022-09-07T16:44:52.966Z,98889.44
2022-09-07T16:47:21.176Z,98896.22
2022-09-07T16:49:49.613Z,98895.13
2022-09-07T16:52:19.096Z,98898.63
2022-09-07T16:54:47.456Z,98888.34
2022-09-07T16:57:15.796Z,98891.63
2022-09-07T16:59:44.038Z,98896.22
2022-09-07T17:02:17.465Z,98905.06
2022-09-07T17:04:46.307Z,98897.22
2022-09-07T17:07:14.436Z,98886.22
2022-09-07T17:09:42.776Z,98891.19
2022-09-07T17:12:12.534Z,98892.25
2022-09-07T17:14:41.390Z,98889.25
2022-09-07T17:17:09.546Z,98883.94
2022-09-07T17:19:39.176Z,98884.41
2022-09-07T17:22:09.189Z,98879.31
2022-09-07T17:24:37.343Z,98882.81
2022-09-07T17:27:05.896Z,98883.84
2022-09-07T17:29:37.065Z,98886.28
2022-09-07T17:34:55.478Z,98903.66
2022-09-07T17:37:23.804Z,98899.31
2022-09-07T17:39:52.045Z,98891.63
2022-09-07T17:42:20.701Z,98900.31
2022-09-07T17:44:52.830Z,98899.59
2022-09-07T17:47:21.617Z,98900.34
2022-09-07T17:49:49.875Z,98901.81
2022-09-07T17:52:19.436Z,98908.09
2022-09-07T17:54:48.256Z,98904.69
2022-09-07T17:57:16.436Z,98902.78
2022-09-07T18:02:38.105Z,98908.06
2022-09-07T18:05:07.510Z,98903.22
2022-09-07T18:07:37.026Z,98898.19
2022-09-07T18:10:05.686Z,98908.41
2022-09-07T18:12:34.105Z,98907.66
2022-09-07T18:15:02.776Z,98889.56
2022-09-07T18:17:31.174Z,98890.38
2022-09-07T18:19:59.395Z,98887.94
2022-09-07T18:22:27.509Z,98886.25
2022-09-07T18:24:56.955Z,98894.41
2022-09-07T18:27:26.135Z,98896.69
2022-09-07T18:29:54.436Z,98899.72
2022-09-07T18:32:22.655Z,98911.06
2022-09-07T18:34:52.009Z,98906.22
2022-09-07T18:37:20.304Z,98918.13
2022-09-07T18:39:49.803Z,98927.16
2022-09-07T18:42:20.186Z,98920.28
2022-09-07T18:47:36.957Z,98933.22
2022-09-07T18:50:05.626Z,98928.59
2022-09-07T18:55:24.249Z,98917.44
2022-09-07T18:57:54.493Z,98921.97
2022-09-07T19:00:24.309Z,98934.50
2022-09-07T19:02:52.567Z,98933.66
2022-09-07T19:08:09.267Z,98926.22
2022-09-07T19:10:38.402Z,98937.03
2022-09-07T19:13:08.016Z,98935.13
2022-09-07T19:15:37.629Z,98931.41
2022-09-07T19:18:07.883Z,98937.22
2022-09-07T19:20:38.118Z,98936.78
2022-09-07T19:23:06.821Z,98935.03
2022-09-07T19:25:35.327Z,98948.63
2022-09-07T19:28:03.785Z,98953.16
2022-09-07T19:30:35.506Z,98957.91
2022-09-07T19:33:04.690Z,98940.44
2022-09-07T19:35:36.815Z,98951.25
2022-09-07T19:38:05.404Z,98949.56
2022-09-07T19:40:33.534Z,98944.25
2022-09-07T19:43:01.715Z,98945.94
2022-09-07T19:45:29.927Z,98943.34
2022-09-07T19:47:59.497Z,98939.75
2022-09-07T19:50:27.908Z,98937.22
2022-09-07T19:52:56.196Z,98941.31
2022-09-07T19:55:24.424Z,98941.22
2022-09-07T19:57:52.846Z,98935.91
2022-09-07T20:00:21.210Z,98945.66
2022-09-07T20:02:50.276Z,98950.47
2022-09-07T20:05:20.465Z,98946.00
2022-09-07T20:07:48.686Z,98936.25
2022-09-07T20:10:17.536Z,98932.97
2022-09-07T20:12:45.625Z,98936.69
2022-09-07T20:15:13.813Z,98931.72
2022-09-07T20:17:42.066Z,98931.53
2022-09-07T20:20:11.009Z,98931.53
2022-09-07T20:22:40.487Z,98932.97
2022-09-07T20:25:13.148Z,98917.56
2022-09-07T20:27:41.821Z,98918.41
2022-09-07T20:30:10.767Z,98926.34
2022-09-07T20:32:38.937Z,98920.47
2022-09-07T20:35:07.858Z,98931.28
2022-09-07T20:37:36.156Z,98931.41
2022-09-07T20:40:07.666Z,98924.53
2022-09-07T20:42:36.127Z,98928.34
2022-09-07T20:45:04.507Z,98919.66
2022-09-07T20:47:32.858Z,98919.66
2022-09-07T20:50:01.039Z,98922.63
2022-09-07T20:52:29.417Z,98921.16
2022-09-07T20:54:57.746Z,98926.84
2022-09-07T20:57:27.448Z,98926.63
2022-09-07T20:59:55.727Z,98920.50
2022-09-07T21:02:24.030Z,98916.03
2022-09-07T21:04:52.497Z,98915.09
2022-09-07T21:07:21.056Z,98917.22
2022-09-07T21:09:49.328Z,98910.47
2022-09-07T21:12:17.907Z,98917.06
2022-09-07T21:14:47.529Z,98922.69
2022-09-07T21:17:15.832Z,98915.31
2022-09-07T21:19:44.076Z,98919.56
2022-09-07T21:22:12.275Z,98911.47
2022-09-07T21:24:40.428Z,98904.94
2022-09-07T21:27:08.784Z,98915.00
2022-09-07T21:29:36.997Z,98910.91
2022-09-07T21:32:06.859Z,98925.53
2022-09-07T21:34:35.220Z,98924.88
2022-09-07T21:37:03.488Z,98927.53
2022-09-07T21:39:31.933Z,98933.91
2022-09-07T21:42:00.279Z,98937.47
2022-09-07T21:44:28.726Z,98936.75
2022-09-07T21:46:56.988Z,98930.94
2022-09-07T21:49:26.517Z,98943.66
2022-09-07T21:51:54.614Z,98941.94
2022-09-07T21:54:22.864Z,98941.94
2022-09-07T21:56:51.376Z,98939.22
2022-09-07T21:59:19.716Z,98938.16
2022-09-07T22:01:48.829Z,98940.25
2022-09-07T22:04:17.225Z,98938.81
2022-09-07T22:06:46.866Z,98940.69
2022-09-07T22:09:15.216Z,98938.47
2022-09-07T22:11:46.036Z,98936.28
2022-09-07T22:14:15.808Z,98928.00
2022-09-07T22:16:44.334Z,98923.69
2022-09-07T22:19:12.815Z,98920.50
2022-09-07T22:21:41.007Z,98934.25
2022-09-07T22:24:15.238Z,98930.34
2022-09-07T22:26:43.451Z,98931.56
2022-09-07T22:29:13.200Z,98932.94
2022-09-07T22:31:42.364Z,98926.25
2022-09-07T22:34:11.001Z,98922.25
2022-09-07T22:36:41.034Z,98925.84
2022-09-07T22:39:14.008Z,98921.72
2022-09-07T22:41:43.519Z,98924.56
2022-09-07T22:44:13.768Z,98920.34
2022-09-07T22:46:44.270Z,98911.66
2022-09-07T22:49:14.427Z,98914.84
2022-09-07T22:51:42.638Z,98917.56
2022-09-07T22:54:12.150Z,98913.34
2022-09-07T22:56:40.986Z,98912.78
2022-09-07T22:59:11.466Z,98910.13
2022-09-07T23:01:40.394Z,98902.31
2022-09-07T23:04:09.789Z,98910.38
2022-09-07T23:06:40.108Z,98914.59
2022-09-07T23:09:10.678Z,98915.44
2022-09-07T23:11:40.601Z,98912.91
2022-09-07T23:14:13.366Z,98913.75
2022-09-07T23:16:41.694Z,98915.44
2022-09-07T23:19:12.206Z,98913.84
2022-09-07T23:21:40.366Z,98915.09
2022-09-07T23:24:08.644Z,98911.59
2022-09-07T23:26:36.721Z,98919.25
2022-09-07T23:29:06.693Z,98912.03
2022-09-07T23:31:37.030Z,98900.81
2022-09-07T23:34:05.623Z,98898.00
2022-09-07T23:36:34.728Z,98887.53
2022-09-07T23:39:03.206Z,98888.47
2022-09-07T23:41:31.245Z,98886.03
2022-09-07T23:44:00.587Z,98886.25
2022-09-07T23:46:30.226Z,98879.25
2022-09-07T23:48:58.534Z,98869.53
2022-09-07T23:51:26.957Z,98878.31
2022-09-07T23:53:55.046Z,98871.13
2022-09-07T23:56:24.541Z,98877.16
2022-09-07T23:58:52.937Z,98868.81
